Mount Lebanon, Pennsylvania
Current Conditions -  °F | °C
As of 5:53 AM on Monday 22 Dec 2014 (Local Time) from KAGC Reporting Station
Haze Haze  
Wind Chill: 19°   Ceiling: Unl
Heat Index: 27°   Visibility: 6mi
Dew Point: 20°   Wind: 7mph
Humidity: 75%   Direction: 100°E
Pressure: 30.1"   Gusts: NA
Location:  40.38°N, 80.04°W
Report Text: KAGC 221053Z 10006KT 6SM HZ CLR M03/M07 A3010 RMK AO2 SLP212 T10281067
Loading
Personal Weather Stations






























Interactive Weather Map New forecast layout! Learn more

10-Day Weather Forecast

Advertisements
Track Severe Weather on mobile